Time;durP1;ratioP1;P1;durP2;ratioP2;P2;SDS_P1;SDS_P2;PMS_P1;PMS_P2;Temp;Humidity;BMP_temperature;BMP_pressure;BME280_temperature;BME280_humidity;BME280_pressure;Samples;Min_cycle;Max_cycle;Signal;HPM_P1;HPM_P2
2022/02/27 00:00:57;;;;;;;7.65;4.47;;;17.60;54.50;;;;;;5063802;28;20053;-79
2022/02/27 00:03:23;;;;;;;7.30;4.20;;;19.80;56.40;;;;;;5049728;28;20112;-79
2022/02/27 00:05:49;;;;;;;7.93;4.25;;;19.50;56.30;;;;;;5074866;28;20023;-79
2022/02/27 00:08:15;;;;;;;6.60;3.83;;;23.90;57.60;;;;;;5086351;28;20044;-80
2022/02/27 00:10:41;;;;;;;6.80;4.30;;;19.60;55.50;;;;;;5060676;28;20029;-79
2022/02/27 00:13:07;;;;;;;6.97;3.90;;;17.50;55.70;;;;;;5065677;28;20415;-79
2022/02/27 00:15:32;;;;;;;8.10;3.80;;;17.00;55.00;;;;;;5069964;28;20036;-79
2022/02/27 00:17:58;;;;;;;6.50;3.97;;;16.80;54.70;;;;;;5064588;28;20025;-79
2022/02/27 00:20:24;;;;;;;6.47;4.10;;;18.00;56.00;;;;;;5044117;28;20025;-79
2022/02/27 00:22:50;;;;;;;5.70;3.83;;;18.40;56.30;;;;;;5053370;28;20017;-79
2022/02/27 00:25:16;;;;;;;7.95;4.30;;;17.80;55.20;;;;;;5048331;28;20027;-79
2022/02/27 00:27:42;;;;;;;7.28;4.38;;;18.70;54.30;;;;;;5066370;28;20043;-79
2022/02/27 00:30:09;;;;;;;6.45;3.60;;;17.60;56.20;;;;;;5047602;28;20031;-79
2022/02/27 00:32:36;;;;;;;5.80;3.58;;;19.20;54.40;;;;;;5068042;28;20369;-79
2022/02/27 00:35:03;;;;;;;8.82;4.38;;;23.50;57.60;;;;;;5073192;28;20074;-79
2022/02/27 00:37:29;;;;;;;6.03;3.47;;;17.80;55.60;;;;;;5066069;28;20134;-79
2022/02/27 00:39:54;;;;;;;7.15;3.60;;;16.70;54.90;;;;;;5055136;28;20067;-79
2022/02/27 00:42:20;;;;;;;6.85;4.25;;;18.10;54.50;;;;;;5077416;28;20021;-79
2022/02/27 00:44:46;;;;;;;7.55;3.55;;;19.30;55.40;;;;;;5052771;28;20112;-79
2022/02/27 00:47:12;;;;;;;7.95;3.90;;;19.70;55.00;;;;;;5061066;28;20459;-79
2022/02/27 00:49:37;;;;;;;5.50;3.67;;;17.90;55.90;;;;;;5060954;28;20108;-79
2022/02/27 00:52:04;;;;;;;5.88;3.88;;;19.20;55.90;;;;;;5074413;28;20055;-79
2022/02/27 00:54:29;;;;;;;6.10;3.50;;;17.80;53.00;;;;;;5075437;28;20444;-79
2022/02/27 00:56:55;;;;;;;5.65;3.67;;;16.60;55.40;;;;;;5077859;28;20041;-79
2022/02/27 00:59:21;;;;;;;5.15;3.50;;;17.90;54.10;;;;;;5063011;28;20017;-79
2022/02/27 01:01:46;;;;;;;4.57;3.03;;;19.40;55.00;;;;;;5061715;28;20029;-79
2022/02/27 01:04:12;;;;;;;7.03;3.50;;;17.80;56.80;;;;;;5056408;28;20021;-79
2022/02/27 01:06:38;;;;;;;5.43;3.30;;;17.60;55.30;;;;;;5070038;28;20104;-79
2022/02/27 01:09:05;;;;;;;8.57;3.90;;;19.30;56.10;;;;;;5074406;28;20137;-79
2022/02/27 01:11:33;;;;;;;6.63;4.05;;;17.50;54.20;;;;;;5055835;28;20495;-79
2022/02/27 01:14:00;;;;;;;5.28;3.17;;;22.60;56.70;;;;;;5075595;28;20028;-79
2022/02/27 01:16:25;;;;;;;6.05;3.47;;;17.70;57.00;;;;;;5073860;28;20031;-79
2022/02/27 01:18:52;;;;;;;6.95;3.40;;;19.50;58.30;;;;;;5073593;28;20021;-79
2022/02/27 01:21:18;;;;;;;5.47;3.33;;;22.80;59.30;;;;;;5073230;28;20544;-79
2022/02/27 01:23:44;;;;;;;6.07;3.47;;;19.10;55.10;;;;;;5055721;28;20016;-79
2022/02/27 01:26:11;;;;;;;5.55;3.00;;;16.90;55.90;;;;;;5044325;28;20228;-79
2022/02/27 01:28:37;;;;;;;6.72;3.17;;;19.00;55.10;;;;;;5062402;28;20554;-79
2022/02/27 01:31:03;;;;;;;6.68;3.78;;;18.60;56.50;;;;;;5055525;28;20158;-79
2022/02/27 01:33:30;;;;;;;6.00;3.50;;;17.70;55.10;;;;;;5056010;28;20021;-79
2022/02/27 01:35:55;;;;;;;7.03;3.22;;;17.20;55.00;;;;;;5058646;28;20433;-80
2022/02/27 01:38:21;;;;;;;6.85;3.22;;;18.90;58.20;;;;;;5078178;28;20012;-82
2022/02/27 01:40:47;;;;;;;5.45;2.92;;;17.20;55.10;;;;;;5068973;28;20100;-80
2022/02/27 01:43:13;;;;;;;5.97;3.05;;;18.30;58.00;;;;;;5051975;28;20017;-80
2022/02/27 01:45:38;;;;;;;6.10;3.05;;;19.30;57.60;;;;;;5069494;28;20029;-79
2022/02/27 01:48:04;;;;;;;5.53;3.10;;;17.30;54.00;;;;;;5064867;28;20024;-79
2022/02/27 01:50:30;;;;;;;5.18;2.70;;;17.80;56.70;;;;;;5080079;28;20025;-80
2022/02/27 01:52:56;;;;;;;5.53;3.35;;;19.60;55.40;;;;;;5071991;28;20029;-79
2022/02/27 01:55:23;;;;;;;5.47;3.33;;;16.70;53.00;;;;;;5069209;28;20154;-79
2022/02/27 01:57:49;;;;;;;5.00;2.97;;;18.50;55.60;;;;;;5069119;28;20013;-79
2022/02/27 02:00:17;;;;;;;6.75;3.10;;;22.70;57.70;;;;;;5068753;28;20080;-79
2022/02/27 02:02:45;;;;;;;4.90;2.85;;;18.20;56.30;;;;;;5084959;28;20023;-79
2022/02/27 02:05:11;;;;;;;6.57;3.38;;;22.30;56.50;;;;;;5071980;28;20036;-79
2022/02/27 02:07:36;;;;;;;4.30;2.65;;;18.40;53.60;;;;;;5064781;28;20419;-79
2022/02/27 02:10:03;;;;;;;4.85;2.88;;;23.40;58.10;;;;;;5065963;28;20009;-79
2022/02/27 02:12:31;;;;;;;5.55;3.03;;;18.00;52.30;;;;;;5071092;28;20067;-79
2022/02/27 02:14:56;;;;;;;6.63;3.15;;;18.00;55.50;;;;;;5073367;28;20095;-79
2022/02/27 02:17:22;;;;;;;7.60;3.22;;;18.50;55.80;;;;;;5067816;28;20040;-79
2022/02/27 02:19:54;;;;;;;5.80;3.17;;;18.20;55.80;;;;;;5077077;28;20024;-79
2022/02/27 02:22:21;;;;;;;4.78;2.88;;;18.70;52.70;;;;;;5069136;28;20027;-79
2022/02/27 02:24:47;;;;;;;5.85;2.95;;;17.40;55.50;;;;;;5049920;28;20020;-79
2022/02/27 02:27:13;;;;;;;5.53;2.88;;;19.30;55.10;;;;;;5076572;28;20021;-79
2022/02/27 02:29:39;;;;;;;6.15;2.95;;;23.00;57.20;;;;;;5069315;28;20056;-79
2022/02/27 02:32:05;;;;;;;5.32;2.95;;;18.80;54.10;;;;;;5074312;28;20025;-79
2022/02/27 02:34:32;;;;;;;5.88;2.97;;;22.70;56.30;;;;;;5077495;28;20480;-80
2022/02/27 02:36:58;;;;;;;9.60;2.70;;;17.10;53.40;;;;;;5053197;28;20035;-80
2022/02/27 02:39:25;;;;;;;5.10;2.92;;;18.00;55.50;;;;;;5057950;28;20406;-80
2022/02/27 02:41:51;;;;;;;4.50;2.60;;;18.20;57.10;;;;;;5064405;28;20394;-81
2022/02/27 02:44:17;;;;;;;5.80;2.63;;;17.60;53.10;;;;;;5070458;28;20029;-79
2022/02/27 02:46:44;;;;;;;4.85;2.60;;;17.50;54.20;;;;;;5053061;28;20033;-79
2022/02/27 02:49:11;;;;;;;5.55;2.90;;;18.40;53.70;;;;;;5041120;28;20214;-79
2022/02/27 02:51:38;;;;;;;5.68;2.70;;;17.60;55.70;;;;;;5062347;28;20029;-79
2022/02/27 02:54:05;;;;;;;4.60;2.22;;;17.20;55.00;;;;;;5046199;28;20025;-79
2022/02/27 02:56:31;;;;;;;4.15;2.40;;;17.10;53.40;;;;;;5051935;28;20049;-79
2022/02/27 02:58:57;;;;;;;5.80;2.45;;;22.40;56.40;;;;;;5056282;28;20055;-79
2022/02/27 03:01:23;;;;;;;5.43;2.30;;;16.60;52.80;;;;;;5069636;28;20021;-79
2022/02/27 03:03:50;;;;;;;5.05;2.65;;;17.60;52.70;;;;;;5071577;28;20372;-79
2022/02/27 03:06:17;;;;;;;8.75;2.90;;;19.30;55.60;;;;;;5065103;28;20033;-78
2022/02/27 03:08:44;;;;;;;4.00;2.65;;;19.20;53.90;;;;;;5059509;28;20044;-78
2022/02/27 03:11:12;;;;;;;4.57;2.75;;;18.00;54.00;;;;;;5078663;28;20124;-78
2022/02/27 03:13:38;;;;;;;5.90;2.55;;;19.30;54.00;;;;;;5095442;28;20028;-79
2022/02/27 03:16:05;;;;;;;6.72;2.67;;;19.30;56.30;;;;;;5069550;28;20024;-79
2022/02/27 03:18:32;;;;;;;4.78;2.58;;;17.50;53.30;;;;;;5074627;28;20059;-79
2022/02/27 03:21:03;;;;;;;4.55;2.50;;;19.00;54.00;;;;;;5078553;28;20070;-79
2022/02/27 03:23:30;;;;;;;5.47;2.67;;;17.20;54.20;;;;;;5064715;28;20046;-79
2022/02/27 03:25:59;;;;;;;4.40;2.42;;;18.30;54.00;;;;;;5071454;28;20029;-79
2022/02/27 03:28:25;;;;;;;5.93;2.83;;;18.10;53.40;;;;;;5063333;28;20109;-79
2022/02/27 03:30:51;;;;;;;5.32;2.35;;;17.90;53.10;;;;;;5072923;28;20021;-79
2022/02/27 03:33:17;;;;;;;4.70;2.38;;;17.80;55.40;;;;;;5075232;28;20427;-79
2022/02/27 03:35:46;;;;;;;5.13;2.50;;;17.50;55.30;;;;;;5070301;28;20017;-79
2022/02/27 03:38:12;;;;;;;5.18;2.50;;;18.20;52.10;;;;;;5078799;28;20025;-79
2022/02/27 03:40:38;;;;;;;5.45;2.35;;;19.20;54.70;;;;;;5071464;28;20091;-79
2022/02/27 03:43:03;;;;;;;3.97;2.20;;;19.40;55.80;;;;;;5083514;28;20053;-79
2022/02/27 03:45:29;;;;;;;5.15;2.22;;;19.00;54.00;;;;;;5073939;28;20025;-79
2022/02/27 03:47:55;;;;;;;4.15;2.20;;;19.10;56.30;;;;;;5077420;28;20025;-79
2022/02/27 03:50:23;;;;;;;6.28;2.63;;;19.00;54.40;;;;;;5090964;28;20025;-79
2022/02/27 03:52:49;;;;;;;4.93;2.28;;;18.30;53.00;;;;;;5059583;28;20059;-77
2022/02/27 03:55:16;;;;;;;4.63;2.28;;;19.20;55.10;;;;;;5079054;28;20383;-77
2022/02/27 03:57:42;;;;;;;5.65;2.53;;;19.10;53.10;;;;;;5079100;28;20055;-77
2022/02/27 04:00:11;;;;;;;4.88;2.28;;;19.30;55.40;;;;;;5085750;28;20016;-77
2022/02/27 04:02:37;;;;;;;4.50;2.35;;;18.50;53.90;;;;;;5067564;28;20067;-78
2022/02/27 04:05:04;;;;;;;3.88;2.25;;;18.90;54.60;;;;;;5077839;28;20024;-77
2022/02/27 04:07:30;;;;;;;4.28;2.15;;;17.90;53.50;;;;;;5079538;28;20039;-79
2022/02/27 04:09:56;;;;;;;4.47;2.20;;;23.40;56.40;;;;;;5061206;28;20021;-79
2022/02/27 04:12:21;;;;;;;3.95;2.20;;;19.20;54.90;;;;;;5079263;28;20047;-79
2022/02/27 04:14:47;;;;;;;3.97;2.00;;;17.80;52.70;;;;;;5070258;28;20051;-79
2022/02/27 04:17:13;;;;;;;4.28;2.33;;;19.50;53.90;;;;;;5058293;28;20067;-79
2022/02/27 04:19:39;;;;;;;5.97;2.38;;;16.90;52.80;;;;;;5059004;28;20017;-79
2022/02/27 04:22:05;;;;;;;4.15;2.00;;;22.60;55.60;;;;;;5068308;28;20112;-79
2022/02/27 04:24:31;;;;;;;4.78;2.38;;;18.70;56.00;;;;;;5066628;28;20483;-78
2022/02/27 04:26:58;;;;;;;4.13;2.10;;;19.30;56.50;;;;;;5056808;28;20025;-78
2022/02/27 04:29:24;;;;;;;4.15;2.00;;;19.00;55.50;;;;;;5062964;28;20025;-79
2022/02/27 04:31:50;;;;;;;2.88;1.70;;;19.40;54.80;;;;;;5068807;28;20065;-79
2022/02/27 04:34:16;;;;;;;3.58;2.17;;;19.30;57.20;;;;;;5073146;28;20082;-79
2022/02/27 04:36:42;;;;;;;5.03;2.00;;;18.80;55.50;;;;;;5071252;28;20028;-79
2022/02/27 04:39:07;;;;;;;4.32;1.95;;;17.50;54.00;;;;;;5074506;28;20357;-79
2022/02/27 04:41:33;;;;;;;3.28;1.67;;;18.30;56.60;;;;;;5071882;28;20021;-79
2022/02/27 04:43:59;;;;;;;3.40;1.50;;;17.80;54.20;;;;;;5067684;28;20107;-79
2022/02/27 04:46:25;;;;;;;3.83;2.17;;;22.90;57.00;;;;;;5060700;28;20021;-79
2022/02/27 04:48:50;;;;;;;2.95;1.95;;;18.40;53.90;;;;;;5067897;28;20052;-79
2022/02/27 04:51:16;;;;;;;3.42;2.03;;;18.00;54.70;;;;;;5058714;28;20518;-79
2022/02/27 04:53:47;;;;;;;4.63;2.05;;;18.10;55.80;;;;;;5075656;28;20388;-77
2022/02/27 04:56:13;;;;;;;3.78;1.90;;;19.60;55.60;;;;;;5047844;28;20021;-77
2022/02/27 04:58:38;;;;;;;2.90;1.65;;;18.20;53.60;;;;;;5055466;28;20028;-77
2022/02/27 05:01:04;;;;;;;3.88;1.98;;;19.00;56.90;;;;;;5063310;28;20021;-77
2022/02/27 05:03:30;;;;;;;4.07;1.92;;;19.50;55.30;;;;;;5060516;28;20032;-77
2022/02/27 05:05:56;;;;;;;3.25;1.73;;;17.80;54.60;;;;;;5058979;28;20027;-77
2022/02/27 05:08:21;;;;;;;3.50;1.80;;;18.40;56.60;;;;;;5068082;28;20589;-77
2022/02/27 05:10:47;;;;;;;4.28;1.98;;;16.60;54.00;;;;;;5058763;28;20486;-78
2022/02/27 05:13:13;;;;;;;3.88;2.10;;;19.20;57.40;;;;;;5056393;28;20028;-78
2022/02/27 05:15:40;;;;;;;4.30;1.63;;;17.00;54.60;;;;;;5070417;28;20021;-78
2022/02/27 05:18:06;;;;;;;3.08;1.60;;;23.40;58.60;;;;;;5063963;28;20116;-78
2022/02/27 05:20:32;;;;;;;3.45;1.90;;;18.10;55.00;;;;;;5071453;28;20459;-78
2022/02/27 05:22:57;;;;;;;4.47;2.17;;;17.70;56.70;;;;;;5058243;28;20495;-78
2022/02/27 05:25:23;;;;;;;2.47;1.40;;;23.60;60.80;;;;;;5075400;28;20032;-78
2022/02/27 05:27:51;;;;;;;3.30;1.75;;;18.00;58.90;;;;;;5068663;28;20021;-78
2022/02/27 05:30:19;;;;;;;3.33;1.83;;;20.00;55.40;;;;;;5064151;28;20021;-78
2022/02/27 05:32:45;;;;;;;4.43;1.92;;;23.60;59.40;;;;;;5056233;28;20062;-78
2022/02/27 05:35:11;;;;;;;4.70;1.95;;;19.50;58.10;;;;;;5073645;28;20021;-78
2022/02/27 05:37:37;;;;;;;3.22;1.90;;;23.80;58.10;;;;;;5068859;28;20029;-78
2022/02/27 05:40:04;;;;;;;2.33;1.55;;;20.10;58.20;;;;;;5057363;28;20519;-78
2022/02/27 05:42:30;;;;;;;3.67;2.00;;;17.90;57.20;;;;;;5073138;28;20039;-78
2022/02/27 05:44:56;;;;;;;4.15;1.80;;;17.90;57.50;;;;;;5058586;28;20013;-78
2022/02/27 05:47:22;;;;;;;2.72;1.90;;;19.90;58.10;;;;;;5075603;28;20042;-78
2022/02/27 05:49:48;;;;;;;3.85;2.15;;;23.40;62.30;;;;;;5057867;28;20048;-78
2022/02/27 05:52:13;;;;;;;5.70;1.90;;;18.50;58.00;;;;;;5063073;28;20036;-78
2022/02/27 05:54:39;;;;;;;3.40;1.60;;;18.10;58.70;;;;;;5052074;28;20428;-78
2022/02/27 05:57:06;;;;;;;3.53;1.75;;;18.70;57.70;;;;;;5075649;28;20039;-78
2022/02/27 05:59:32;;;;;;;3.75;1.60;;;17.80;56.80;;;;;;5069518;28;20459;-78
2022/02/27 06:01:58;;;;;;;3.55;1.60;;;19.40;59.00;;;;;;5072302;28;20032;-78
2022/02/27 06:04:23;;;;;;;3.35;2.00;;;19.40;58.30;;;;;;5072090;28;20024;-79
2022/02/27 06:06:49;;;;;;;3.28;1.50;;;18.40;58.80;;;;;;5065206;28;20037;-78
2022/02/27 06:09:15;;;;;;;2.22;1.52;;;16.70;58.30;;;;;;5067327;28;20403;-78
2022/02/27 06:11:41;;;;;;;3.85;1.90;;;23.60;61.80;;;;;;5067689;28;20035;-78
2022/02/27 06:14:09;;;;;;;4.18;1.80;;;19.40;57.30;;;;;;5072882;28;20024;-78
2022/02/27 06:16:35;;;;;;;3.97;1.75;;;17.80;57.40;;;;;;5066884;28;20032;-78
2022/02/27 06:19:01;;;;;;;4.47;2.30;;;17.00;56.30;;;;;;5083489;28;20013;-78
2022/02/27 06:21:26;;;;;;;3.53;1.65;;;18.90;57.20;;;;;;5076657;28;20050;-78
2022/02/27 06:23:53;;;;;;;2.85;1.70;;;17.50;57.90;;;;;;5062519;28;20044;-79
2022/02/27 06:26:19;;;;;;;3.17;1.77;;;23.00;62.00;;;;;;5077015;28;20093;-78
2022/02/27 06:28:45;;;;;;;2.70;1.60;;;16.80;55.10;;;;;;5066281;28;20027;-78
2022/02/27 06:31:11;;;;;;;4.55;1.85;;;17.80;57.30;;;;;;5079268;28;20029;-78
2022/02/27 06:33:37;;;;;;;2.97;1.58;;;17.80;58.30;;;;;;5073677;28;20032;-78
2022/02/27 06:36:03;;;;;;;2.58;1.63;;;17.70;56.90;;;;;;5068172;28;20029;-78
2022/02/27 06:38:29;;;;;;;3.25;1.50;;;23.50;61.50;;;;;;5070969;28;20092;-78
2022/02/27 06:40:55;;;;;;;4.57;1.92;;;16.80;56.70;;;;;;5070934;28;20506;-78
2022/02/27 06:43:21;;;;;;;2.50;1.50;;;17.90;56.60;;;;;;5058537;28;20021;-78
2022/02/27 06:45:46;;;;;;;3.67;1.63;;;22.60;60.80;;;;;;5057776;28;20588;-78
2022/02/27 06:48:12;;;;;;;3.97;1.92;;;22.00;59.30;;;;;;5070540;28;20099;-78
2022/02/27 06:50:38;;;;;;;4.15;1.70;;;19.00;58.40;;;;;;5065860;28;20078;-78
2022/02/27 06:53:03;;;;;;;4.43;1.80;;;18.00;56.60;;;;;;5065805;28;20021;-78
2022/02/27 06:55:30;;;;;;;2.38;1.20;;;;;;;;;;5062349;28;20025;-78
2022/02/27 06:57:55;;;;;;;3.72;1.65;;;18.80;56.50;;;;;;5063511;28;20024;-78
2022/02/27 07:00:21;;;;;;;5.50;1.48;;;17.50;56.00;;;;;;5071898;28;20403;-78
2022/02/27 07:02:47;;;;;;;3.88;1.80;;;16.90;57.90;;;;;;5064259;28;20412;-77
2022/02/27 07:05:14;;;;;;;2.78;1.60;;;17.10;55.60;;;;;;5073327;28;20036;-77
2022/02/27 07:07:40;;;;;;;3.30;1.60;;;17.50;55.50;;;;;;5070910;28;20112;-78
2022/02/27 07:10:07;;;;;;;2.75;1.60;;;19.50;57.40;;;;;;5049373;28;20455;-78
2022/02/27 07:12:35;;;;;;;2.85;1.70;;;17.10;54.70;;;;;;5076092;28;20019;-78
2022/02/27 07:15:01;;;;;;;3.85;1.80;;;18.90;55.70;;;;;;5073827;28;20134;-78
2022/02/27 07:17:27;;;;;;;3.20;1.90;;;19.10;57.50;;;;;;5063997;28;20033;-78
2022/02/27 07:19:53;;;;;;;2.38;1.60;;;;;;;;;;5063892;28;20091;-78
2022/02/27 07:22:20;;;;;;;4.40;2.13;;;17.80;57.10;;;;;;5056873;28;20143;-78
2022/02/27 07:24:47;;;;;;;3.42;1.60;;;17.50;56.00;;;;;;5067525;28;20044;-78
2022/02/27 07:27:13;;;;;;;2.53;1.35;;;19.40;57.50;;;;;;5074800;28;20119;-78
2022/02/27 07:29:42;;;;;;;3.90;1.92;;;22.00;59.50;;;;;;5069464;28;20051;-78
2022/02/27 07:32:11;;;;;;;2.75;1.70;;;18.70;56.10;;;;;;5048884;28;20547;-78
2022/02/27 07:34:38;;;;;;;2.60;1.50;;;17.00;56.20;;;;;;5067672;28;20025;-78
2022/02/27 07:37:04;;;;;;;3.05;1.35;;;22.90;58.50;;;;;;5065649;28;20024;-78
2022/02/27 07:39:30;;;;;;;3.25;1.83;;;17.50;55.00;;;;;;5045490;28;20020;-78
2022/02/27 07:41:56;;;;;;;2.97;1.40;;;18.90;56.00;;;;;;5054164;28;20367;-78
2022/02/27 07:44:22;;;;;;;2.70;1.60;;;17.70;54.40;;;;;;5052898;28;20036;-78
2022/02/27 07:46:48;;;;;;;2.60;1.17;;;17.50;57.50;;;;;;5072416;28;20096;-78
2022/02/27 07:49:14;;;;;;;3.00;1.70;;;22.40;59.60;;;;;;5048401;28;20032;-78
2022/02/27 07:51:41;;;;;;;2.78;1.42;;;17.20;56.90;;;;;;5067605;28;20466;-78
2022/02/27 07:54:07;;;;;;;3.63;1.70;;;17.10;54.60;;;;;;5072903;28;20062;-78
2022/02/27 07:56:34;;;;;;;2.97;1.65;;;18.20;57.60;;;;;;5075297;28;20024;-78
2022/02/27 07:59:00;;;;;;;3.20;1.67;;;17.30;56.00;;;;;;5075176;28;20479;-78
2022/02/27 08:01:27;;;;;;;2.42;1.42;;;18.20;55.90;;;;;;5070917;28;20021;-78
2022/02/27 08:03:53;;;;;;;2.42;1.42;;;17.90;55.40;;;;;;5063322;28;20476;-78
2022/02/27 08:06:19;;;;;;;1.90;1.30;;;19.40;56.70;;;;;;5075645;28;20024;-78
2022/02/27 08:08:45;;;;;;;2.78;1.58;;;17.90;57.60;;;;;;5065827;28;20059;-78
2022/02/27 08:11:11;;;;;;;3.42;1.63;;;17.70;55.00;;;;;;5063599;28;20193;-78
2022/02/27 08:13:37;;;;;;;3.70;1.63;;;16.90;53.70;;;;;;5045441;28;20029;-78
2022/02/27 08:16:03;;;;;;;3.33;1.60;;;17.20;54.60;;;;;;5062601;28;20059;-78
2022/02/27 08:18:29;;;;;;;4.22;2.25;;;17.50;55.80;;;;;;5041461;28;20041;-78
2022/02/27 08:20:56;;;;;;;3.70;1.90;;;17.30;55.30;;;;;;5053017;28;20029;-78
2022/02/27 08:23:23;;;;;;;2.78;1.45;;;17.80;54.50;;;;;;5064274;28;20013;-78
2022/02/27 08:25:49;;;;;;;4.70;2.08;;;17.60;53.90;;;;;;5046948;28;20040;-78
2022/02/27 08:28:16;;;;;;;3.63;1.83;;;19.10;55.10;;;;;;5042713;28;20400;-78
2022/02/27 08:30:42;;;;;;;3.78;1.65;;;19.20;55.30;;;;;;5053137;28;20043;-78
2022/02/27 08:33:08;;;;;;;3.03;1.70;;;18.10;56.30;;;;;;5064976;28;20048;-78
2022/02/27 08:35:34;;;;;;;2.72;1.52;;;17.90;54.30;;;;;;5078861;28;20052;-78
2022/02/27 08:38:00;;;;;;;4.65;1.92;;;19.20;54.50;;;;;;5044499;28;20028;-78
2022/02/27 08:40:26;;;;;;;2.53;1.60;;;18.10;56.40;;;;;;5039924;28;20119;-78
2022/02/27 08:42:54;;;;;;;3.13;1.38;;;19.20;55.00;;;;;;5063235;28;20024;-78
2022/02/27 08:45:20;;;;;;;3.83;1.75;;;17.00;52.00;;;;;;5061024;28;20028;-78
2022/02/27 08:47:46;;;;;;;2.10;1.40;;;17.00;54.50;;;;;;5068600;28;20021;-78
2022/02/27 08:50:12;;;;;;;5.13;1.73;;;19.00;54.20;;;;;;5068952;28;20029;-78
2022/02/27 08:52:38;;;;;;;3.13;1.80;;;19.20;56.10;;;;;;5059245;28;20475;-78
2022/02/27 08:55:05;;;;;;;2.95;1.60;;;18.40;54.70;;;;;;5035309;28;20079;-78
2022/02/27 08:57:31;;;;;;;3.30;1.63;;;18.50;54.60;;;;;;5048252;28;20013;-78
2022/02/27 08:59:57;;;;;;;2.83;1.75;;;19.10;54.10;;;;;;5054957;28;20037;-78
2022/02/27 09:02:23;;;;;;;2.83;1.70;;;18.70;58.00;;;;;;5063372;28;20027;-78
2022/02/27 09:04:50;;;;;;;3.38;1.70;;;17.70;52.70;;;;;;5072139;28;20024;-78
2022/02/27 09:07:16;;;;;;;2.83;1.67;;;16.70;53.30;;;;;;5050999;28;20108;-78
2022/02/27 09:09:43;;;;;;;3.60;1.45;;;17.60;53.90;;;;;;5060275;28;20032;-78
2022/02/27 09:12:09;;;;;;;4.05;1.50;;;16.90;54.20;;;;;;5041511;28;20025;-78
2022/02/27 09:14:36;;;;;;;4.43;1.80;;;19.10;54.50;;;;;;5058440;28;20091;-78
2022/02/27 09:17:02;;;;;;;3.13;1.55;;;17.90;53.10;;;;;;5063985;28;20104;-78
2022/02/27 09:19:28;;;;;;;4.13;1.80;;;18.50;55.90;;;;;;5062408;28;20013;-78
2022/02/27 09:21:54;;;;;;;3.75;1.70;;;;;;;;;;5062509;28;20399;-78
2022/02/27 09:24:20;;;;;;;2.88;1.75;;;17.30;52.70;;;;;;5059637;28;20487;-78
2022/02/27 09:26:46;;;;;;;3.97;1.35;;;18.00;55.00;;;;;;5068078;28;20020;-78
2022/02/27 09:29:12;;;;;;;5.25;1.83;;;18.00;54.40;;;;;;5051490;28;20029;-78
2022/02/27 09:31:38;;;;;;;2.58;1.20;;;18.20;53.30;;;;;;5059369;28;20380;-78
2022/02/27 09:34:05;;;;;;;4.10;1.70;;;17.50;54.60;;;;;;5051836;28;20031;-78
2022/02/27 09:36:31;;;;;;;2.55;1.58;;;18.60;55.70;;;;;;5064377;28;20078;-78
2022/02/27 09:38:57;;;;;;;2.70;1.50;;;18.70;55.80;;;;;;5035814;28;20149;-78
2022/02/27 09:41:23;;;;;;;2.65;1.50;;;18.90;54.70;;;;;;5038622;28;20020;-78
2022/02/27 09:43:54;;;;;;;2.80;1.52;;;18.90;55.70;;;;;;5062885;28;20020;-78
2022/02/27 09:46:31;;;;;;;3.38;1.60;;;18.60;54.80;;;;;;5051366;28;20182;-78
2022/02/27 09:48:57;;;;;;;2.83;1.63;;;19.60;51.90;;;;;;5067071;28;20039;-78
2022/02/27 09:51:24;;;;;;;3.65;1.70;;;18.90;53.60;;;;;;5083379;28;20021;-77
2022/02/27 09:53:50;;;;;;;4.47;1.52;;;18.80;54.00;;;;;;5067235;28;20066;-79
2022/02/27 09:56:17;;;;;;;2.15;1.27;;;18.80;55.50;;;;;;5054989;28;20021;-79
2022/02/27 09:58:42;;;;;;;2.92;1.48;;;16.70;53.00;;;;;;5056722;28;20021;-79
2022/02/27 10:01:10;;;;;;;2.45;1.45;;;18.70;54.80;;;;;;5043960;28;20582;-79
2022/02/27 10:03:36;;;;;;;2.85;1.60;;;18.80;53.90;;;;;;5063069;28;20453;-79
2022/02/27 10:06:08;;;;;;;2.70;1.95;;;17.10;55.40;;;;;;5034989;28;20021;-79
2022/02/27 10:08:42;;;;;;;3.40;1.67;;;19.30;54.60;;;;;;5047755;28;20135;-79
2022/02/27 10:11:11;;;;;;;4.00;1.90;;;19.40;53.00;;;;;;5053328;28;20029;-79
2022/02/27 10:13:42;;;;;;;2.33;1.40;;;17.80;54.10;;;;;;5072048;28;20445;-79
2022/02/27 10:16:16;;;;;;;2.22;1.50;;;17.50;54.10;;;;;;5061062;28;20049;-79
2022/02/27 10:18:55;;;;;;;2.70;1.65;;;18.10;53.80;;;;;;5045244;28;20369;-79
2022/02/27 10:21:26;;;;;;;2.22;1.50;;;18.70;51.30;;;;;;5045466;28;20053;-77
2022/02/27 10:24:13;;;;;;;3.15;1.58;;;19.30;55.90;;;;;;5075388;28;20013;-78
2022/02/27 10:26:43;;;;;;;2.47;1.52;;;19.40;53.70;;;;;;5078982;28;20024;-78
2022/02/27 10:29:11;;;;;;;3.72;1.60;;;19.30;57.20;;;;;;5068263;28;20028;-77
2022/02/27 10:31:41;;;;;;;2.70;1.40;;;17.70;57.00;;;;;;5070762;28;20033;-77
2022/02/27 10:34:25;;;;;;;4.82;1.73;;;19.30;54.60;;;;;;5084808;28;20028;-78
2022/02/27 10:37:05;;;;;;;2.75;1.60;;;19.40;54.70;;;;;;5083090;28;20024;-78
2022/02/27 10:39:42;;;;;;;2.45;1.40;;;19.30;54.60;;;;;;5071203;28;20017;-78
2022/02/27 10:42:17;;;;;;;3.40;1.60;;;18.10;57.00;;;;;;5071262;28;20482;-78
2022/02/27 10:44:50;;;;;;;3.47;1.77;;;18.80;55.20;;;;;;5058637;28;20387;-78
2022/02/27 10:47:23;;;;;;;;;;;19.30;58.00;;;;;;5049749;28;20049;-78
2022/02/27 10:49:52;;;;;;;2.45;1.50;;;21.30;54.50;;;;;;5068777;28;19904;-78
2022/02/27 10:52:21;;;;;;;2.10;1.35;;;19.00;57.20;;;;;;5053784;28;20082;-78
2022/02/27 10:54:49;;;;;;;3.13;1.27;;;18.50;58.00;;;;;;5052976;28;20049;-78
2022/02/27 10:57:32;;;;;;;2.72;1.42;;;18.80;58.10;;;;;;5067560;28;20021;-78
2022/02/27 11:00:19;;;;;;;3.58;1.60;;;20.30;57.00;;;;;;5050025;28;20028;-78
2022/02/27 11:02:48;;;;;;;4.63;1.42;;;19.40;54.50;;;;;;5064653;28;20499;-78
2022/02/27 11:05:16;;;;;;;3.55;1.60;;;18.60;54.70;;;;;;5058818;28;20051;-78
2022/02/27 11:07:45;;;;;;;3.13;1.80;;;18.20;56.70;;;;;;5067327;28;20123;-78
2022/02/27 11:10:14;;;;;;;3.28;1.70;;;22.20;60.00;;;;;;5047661;28;20035;-78
2022/02/27 11:12:39;;;;;;;3.92;1.67;;;18.50;57.00;;;;;;5067729;28;20479;-78
2022/02/27 11:15:08;;;;;;;3.25;1.50;;;17.20;57.30;;;;;;5070253;28;20083;-78
2022/02/27 11:17:34;;;;;;;3.58;1.70;;;;;;;;;;5060180;28;20032;-78
2022/02/27 11:20:02;;;;;;;3.10;1.60;;;18.90;57.30;;;;;;5065113;28;20028;-78
2022/02/27 11:22:28;;;;;;;3.85;2.17;;;19.00;58.10;;;;;;5067171;28;20386;-78
2022/02/27 11:24:59;;;;;;;3.97;2.00;;;19.90;57.80;;;;;;5047540;28;20029;-78
2022/02/27 11:27:27;;;;;;;2.50;1.33;;;17.90;57.80;;;;;;5074307;28;20073;-78
2022/02/27 11:30:04;;;;;;;3.03;1.35;;;22.10;60.00;;;;;;5050559;28;20025;-78
2022/02/27 11:32:30;;;;;;;2.55;1.30;;;19.90;54.80;;;;;;5073499;28;20021;-78
2022/02/27 11:34:56;;;;;;;4.10;1.63;;;;;;;;;;5065093;28;20028;-78
2022/02/27 11:37:47;;;;;;;3.65;1.48;;;20.00;59.70;;;;;;5066907;28;20012;-78
2022/02/27 11:40:31;;;;;;;4.43;1.65;;;19.60;53.70;;;;;;5060663;28;20063;-78
2022/02/27 11:43:03;;;;;;;3.85;1.65;;;19.50;56.30;;;;;;5051905;28;20012;-78
2022/02/27 11:45:38;;;;;;;4.27;1.57;;;18.30;55.50;;;;;;5074137;28;20020;-78
2022/02/27 11:48:05;;;;;;;4.07;1.90;;;19.60;54.70;;;;;;5045988;28;20029;-78
2022/02/27 11:50:38;;;;;;;4.85;1.77;;;17.30;54.80;;;;;;5062748;28;20017;-78
2022/02/27 11:53:21;;;;;;;3.28;1.48;;;19.40;55.40;;;;;;5053501;28;20044;-78
2022/02/27 11:55:48;;;;;;;2.60;1.50;;;20.20;53.50;;;;;;5063934;28;20036;-78
2022/02/27 11:58:18;;;;;;;4.97;1.90;;;17.60;59.00;;;;;;5064651;28;20227;-78
2022/02/27 12:00:45;;;;;;;4.13;1.92;;;;;;;;;;5064875;28;20456;-78
2022/02/27 12:03:29;;;;;;;5.05;1.63;;;16.80;55.30;;;;;;5064662;28;20024;-78
2022/02/27 12:05:56;;;;;;;3.47;1.45;;;19.70;53.00;;;;;;5047838;28;20396;-78
2022/02/27 12:08:41;;;;;;;4.07;1.75;;;24.00;59.10;;;;;;5069093;28;20500;-78
2022/02/27 12:11:31;;;;;;;2.53;1.45;;;20.00;53.10;;;;;;5045320;28;20021;-78
2022/02/27 12:13:58;;;;;;;3.75;1.45;;;;;;;;;;5064345;28;20021;-78
2022/02/27 12:16:44;;;;;;;3.53;1.52;;;17.40;53.40;;;;;;5061527;28;20112;-78
2022/02/27 12:19:32;;;;;;;4.63;1.73;;;20.40;52.50;;;;;;5044728;28;20020;-78
2022/02/27 12:22:01;;;;;;;3.88;1.48;;;20.20;50.90;;;;;;5055334;28;20395;-78
2022/02/27 12:24:32;;;;;;;2.67;1.52;;;18.20;52.00;;;;;;5069362;28;20044;-78
2022/02/27 12:26:58;;;;;;;5.38;1.40;;;20.10;53.10;;;;;;5072355;28;20458;-78
2022/02/27 12:29:24;;;;;;;2.42;1.80;;;;;;;;;;5075031;28;20050;-78
2022/02/27 12:31:51;;;;;;;2.70;1.40;;;;;;;;;;5066347;28;20025;-78
2022/02/27 12:34:18;;;;;;;2.90;1.42;;;23.60;56.20;;;;;;5064704;28;20021;-78
2022/02/27 12:36:52;;;;;;;2.72;1.38;;;18.70;53.30;;;;;;5073129;28;20020;-78
2022/02/27 12:39:19;;;;;;;3.58;1.52;;;20.30;53.10;;;;;;5061798;28;20013;-78
2022/02/27 12:41:48;;;;;;;4.00;1.58;;;17.20;53.70;;;;;;5048340;28;20031;-78
2022/02/27 12:44:47;;;;;;;4.43;1.80;;;23.00;55.60;;;;;;5049292;28;20416;-78
2022/02/27 12:47:17;;;;;;;4.65;1.65;;;19.40;52.00;;;;;;5042150;28;20047;-78
2022/02/27 12:52:28;;;;;;;3.70;1.42;;;20.10;53.80;;;;;;5052308;28;20285;-78
2022/02/27 12:54:56;;;;;;;3.38;1.50;;;17.90;53.30;;;;;;5060507;28;20024;-78